Weather at Walden Ridge Airport [CLOSED]

Public forecast

Using degrees Fahrenheit for public forecast. Weather courtesy of forecast.io.

Closest aviation weather report (METAR) to Walden Ridge Airport

Closest report is Crossville Memorial Whitson Field, 18.1 nm (33.6 km) WNW. Retrieved 2020/10/21 20:53 UTC (41 minutes ago):

KCSV 212053Z AUTO VRB05KT 10SM SCT045 24/14 A3022 RMK AO2 SLP220 T02390139 56015

Closest aviation forecast (TAF) to Walden Ridge Airport

Closest forecast is Crossville Memorial Whitson Field, 18.1 nm (33.6 km) WNW. Retrieved 2020/10/21 18:24 UTC (3 hours ago):

TAF KBNA 211721Z 2118/2218 18006KT P6SM FEW035 TAF KCSV 211721Z 2118/2218 19005KT P6SM FEW025 FM220800 15002KT 4SM BR SKC FM221200 15004KT P6SM SKC